sensor_id;sensor_type;location;lat;lon;timestamp;P1;durP1;ratioP1;P2;durP2;ratioP2
59653;SDS011;66556;52.008;5.432;2023-04-03T00:01:34;4.8;;;2.0;;
59653;SDS011;66556;52.008;5.432;2023-04-03T00:04:47;4.8;;;2.21;;
59653;SDS011;66556;52.008;5.432;2023-04-03T00:06:25;4.1;;;2.1;;
59653;SDS011;66556;52.008;5.432;2023-04-03T00:08:02;3.4;;;1.9;;
59653;SDS011;66556;52.008;5.432;2023-04-03T00:09:39;6.5;;;2.21;;
59653;SDS011;66556;52.008;5.432;2023-04-03T00:12:52;5.5;;;2.1;;
59653;SDS011;66556;52.008;5.432;2023-04-03T00:14:29;5.6;;;1.9;;
59653;SDS011;66556;52.008;5.432;2023-04-03T00:16:05;4.3;;;2.1;;
59653;SDS011;66556;52.008;5.432;2023-04-03T00:19:20;3.2;;;2.1;;
59653;SDS011;66556;52.008;5.432;2023-04-03T00:20:57;4.0;;;2.0;;
59653;SDS011;66556;52.008;5.432;2023-04-03T00:22:34;5.8;;;2.21;;
59653;SDS011;66556;52.008;5.432;2023-04-03T00:25:46;3.6;;;2.21;;
59653;SDS011;66556;52.008;5.432;2023-04-03T00:27:24;4.61;;;2.4;;
59653;SDS011;66556;52.008;5.432;2023-04-03T00:29:00;5.4;;;2.0;;
59653;SDS011;66556;52.008;5.432;2023-04-03T00:30:36;4.1;;;1.9;;
59653;SDS011;66556;52.008;5.432;2023-04-03T00:33:49;4.2;;;2.0;;
59653;SDS011;66556;52.008;5.432;2023-04-03T00:35:27;3.6;;;1.9;;
59653;SDS011;66556;52.008;5.432;2023-04-03T00:37:05;3.2;;;1.9;;
59653;SDS011;66556;52.008;5.432;2023-04-03T00:40:17;4.61;;;2.21;;
59653;SDS011;66556;52.008;5.432;2023-04-03T00:41:54;5.0;;;1.8;;
59653;SDS011;66556;52.008;5.432;2023-04-03T00:43:31;6.1;;;2.1;;
59653;SDS011;66556;52.008;5.432;2023-04-03T00:47:08;4.41;;;1.8;;
59653;SDS011;66556;52.008;5.432;2023-04-03T00:48:47;5.3;;;2.0;;
59653;SDS011;66556;52.008;5.432;2023-04-03T00:50:25;4.7;;;2.0;;
59653;SDS011;66556;52.008;5.432;2023-04-03T00:52:03;4.5;;;2.21;;
59653;SDS011;66556;52.008;5.432;2023-04-03T00:53:46;6.2;;;3.0;;
59653;SDS011;66556;52.008;5.432;2023-04-03T00:57:01;4.2;;;2.31;;
59653;SDS011;66556;52.008;5.432;2023-04-03T00:58:42;3.6;;;2.0;;
59653;SDS011;66556;52.008;5.432;2023-04-03T01:00:25;3.9;;;2.0;;
59653;SDS011;66556;52.008;5.432;2023-04-03T01:02:02;4.41;;;2.1;;
59653;SDS011;66556;52.008;5.432;2023-04-03T01:05:15;5.3;;;2.1;;
59653;SDS011;66556;52.008;5.432;2023-04-03T01:06:53;5.11;;;1.9;;
59653;SDS011;66556;52.008;5.432;2023-04-03T01:08:32;5.7;;;2.0;;
59653;SDS011;66556;52.008;5.432;2023-04-03T01:11:50;9.9;;;2.8;;
59653;SDS011;66556;52.008;5.432;2023-04-03T01:13:27;7.6;;;2.31;;
59653;SDS011;66556;52.008;5.432;2023-04-03T01:15:07;12.7;;;3.1;;
59653;SDS011;66556;52.008;5.432;2023-04-03T01:16:51;7.1;;;2.21;;
59653;SDS011;66556;52.008;5.432;2023-04-03T01:20:20;7.3;;;2.6;;
59653;SDS011;66556;52.008;5.432;2023-04-03T01:23:54;6.5;;;2.8;;
59653;SDS011;66556;52.008;5.432;2023-04-03T01:25:45;7.9;;;2.5;;
59653;SDS011;66556;52.008;5.432;2023-04-03T01:27:24;7.1;;;3.1;;
59653;SDS011;66556;52.008;5.432;2023-04-03T01:30:40;9.71;;;2.8;;
59653;SDS011;66556;52.008;5.432;2023-04-03T01:32:23;9.0;;;2.8;;
59653;SDS011;66556;52.008;5.432;2023-04-03T01:34:00;7.1;;;2.6;;
59653;SDS011;66556;52.008;5.432;2023-04-03T01:35:37;6.9;;;2.4;;
59653;SDS011;66556;52.008;5.432;2023-04-03T01:38:50;8.4;;;2.9;;
59653;SDS011;66556;52.008;5.432;2023-04-03T01:40:28;7.2;;;2.4;;
59653;SDS011;66556;52.008;5.432;2023-04-03T01:42:05;7.5;;;2.4;;
59653;SDS011;66556;52.008;5.432;2023-04-03T01:45:19;11.2;;;3.1;;
59653;SDS011;66556;52.008;5.432;2023-04-03T01:46:55;8.9;;;2.8;;
59653;SDS011;66556;52.008;5.432;2023-04-03T01:48:32;12.1;;;3.0;;
59653;SDS011;66556;52.008;5.432;2023-04-03T01:50:08;9.4;;;2.8;;
59653;SDS011;66556;52.008;5.432;2023-04-03T01:53:22;7.4;;;2.9;;
59653;SDS011;66556;52.008;5.432;2023-04-03T01:54:58;9.31;;;3.0;;
59653;SDS011;66556;52.008;5.432;2023-04-03T01:56:34;9.31;;;2.6;;
59653;SDS011;66556;52.008;5.432;2023-04-03T01:59:47;6.6;;;2.7;;
59653;SDS011;66556;52.008;5.432;2023-04-03T02:01:24;7.9;;;2.7;;
59653;SDS011;66556;52.008;5.432;2023-04-03T02:03:01;6.5;;;2.1;;
59653;SDS011;66556;52.008;5.432;2023-04-03T02:06:15;6.8;;;2.31;;
59653;SDS011;66556;52.008;5.432;2023-04-03T02:07:51;7.4;;;2.31;;
59653;SDS011;66556;52.008;5.432;2023-04-03T02:09:27;7.4;;;2.6;;
59653;SDS011;66556;52.008;5.432;2023-04-03T02:11:04;7.8;;;2.7;;
59653;SDS011;66556;52.008;5.432;2023-04-03T02:14:16;7.9;;;2.5;;
59653;SDS011;66556;52.008;5.432;2023-04-03T02:15:52;8.71;;;2.4;;
59653;SDS011;66556;52.008;5.432;2023-04-03T02:17:28;9.0;;;2.4;;
59653;SDS011;66556;52.008;5.432;2023-04-03T02:20:41;4.61;;;2.0;;
59653;SDS011;66556;52.008;5.432;2023-04-03T02:22:17;6.6;;;2.31;;
59653;SDS011;66556;52.008;5.432;2023-04-03T02:23:53;6.1;;;2.5;;
59653;SDS011;66556;52.008;5.432;2023-04-03T02:27:07;7.5;;;2.4;;
59653;SDS011;66556;52.008;5.432;2023-04-03T02:28:44;9.71;;;2.8;;
59653;SDS011;66556;52.008;5.432;2023-04-03T02:30:20;7.6;;;2.5;;
59653;SDS011;66556;52.008;5.432;2023-04-03T02:31:56;6.4;;;2.5;;
59653;SDS011;66556;52.008;5.432;2023-04-03T02:35:10;4.41;;;2.0;;
59653;SDS011;66556;52.008;5.432;2023-04-03T02:36:47;6.2;;;2.5;;
59653;SDS011;66556;52.008;5.432;2023-04-03T02:38:23;5.9;;;1.9;;
59653;SDS011;66556;52.008;5.432;2023-04-03T02:41:36;6.1;;;2.31;;
59653;SDS011;66556;52.008;5.432;2023-04-03T02:43:13;6.5;;;2.0;;
59653;SDS011;66556;52.008;5.432;2023-04-03T02:44:49;6.0;;;2.0;;
59653;SDS011;66556;52.008;5.432;2023-04-03T02:48:01;5.7;;;2.1;;
59653;SDS011;66556;52.008;5.432;2023-04-03T02:49:37;4.61;;;2.0;;
59653;SDS011;66556;52.008;5.432;2023-04-03T02:51:14;7.7;;;2.31;;
59653;SDS011;66556;52.008;5.432;2023-04-03T02:52:50;6.2;;;2.21;;
59653;SDS011;66556;52.008;5.432;2023-04-03T02:56:02;5.3;;;2.1;;
59653;SDS011;66556;52.008;5.432;2023-04-03T02:57:38;5.9;;;2.1;;
59653;SDS011;66556;52.008;5.432;2023-04-03T02:59:14;3.5;;;1.8;;
59653;SDS011;66556;52.008;5.432;2023-04-03T03:02:28;7.6;;;2.21;;
59653;SDS011;66556;52.008;5.432;2023-04-03T03:04:04;6.6;;;2.21;;
59653;SDS011;66556;52.008;5.432;2023-04-03T03:05:40;7.6;;;2.31;;
59653;SDS011;66556;52.008;5.432;2023-04-03T03:08:53;7.1;;;2.4;;
59653;SDS011;66556;52.008;5.432;2023-04-03T03:10:29;6.2;;;2.21;;
59653;SDS011;66556;52.008;5.432;2023-04-03T03:12:05;4.41;;;2.0;;
59653;SDS011;66556;52.008;5.432;2023-04-03T03:13:41;5.6;;;2.21;;
59653;SDS011;66556;52.008;5.432;2023-04-03T03:16:54;7.3;;;2.6;;
59653;SDS011;66556;52.008;5.432;2023-04-03T03:18:30;8.5;;;2.8;;
59653;SDS011;66556;52.008;5.432;2023-04-03T03:20:07;7.6;;;2.21;;
59653;SDS011;66556;52.008;5.432;2023-04-03T03:23:20;6.1;;;2.21;;
59653;SDS011;66556;52.008;5.432;2023-04-03T03:25:00;7.5;;;2.31;;
59653;SDS011;66556;52.008;5.432;2023-04-03T03:26:36;6.0;;;2.21;;
59653;SDS011;66556;52.008;5.432;2023-04-03T03:29:49;6.4;;;2.0;;
59653;SDS011;66556;52.008;5.432;2023-04-03T03:31:26;6.2;;;2.31;;
59653;SDS011;66556;52.008;5.432;2023-04-03T03:33:02;5.5;;;2.1;;
59653;SDS011;66556;52.008;5.432;2023-04-03T03:34:39;6.7;;;2.31;;
59653;SDS011;66556;52.008;5.432;2023-04-03T03:37:51;5.11;;;2.31;;
59653;SDS011;66556;52.008;5.432;2023-04-03T03:39:28;6.7;;;2.6;;
59653;SDS011;66556;52.008;5.432;2023-04-03T03:41:04;6.6;;;2.5;;
59653;SDS011;66556;52.008;5.432;2023-04-03T03:44:16;7.8;;;2.21;;
59653;SDS011;66556;52.008;5.432;2023-04-03T03:45:53;7.1;;;2.21;;
59653;SDS011;66556;52.008;5.432;2023-04-03T03:47:29;6.6;;;2.31;;
59653;SDS011;66556;52.008;5.432;2023-04-03T03:50:42;4.7;;;1.9;;
59653;SDS011;66556;52.008;5.432;2023-04-03T03:52:18;7.6;;;2.1;;
59653;SDS011;66556;52.008;5.432;2023-04-03T03:53:54;7.7;;;2.5;;
59653;SDS011;66556;52.008;5.432;2023-04-03T03:57:07;8.81;;;2.6;;
59653;SDS011;66556;52.008;5.432;2023-04-03T03:58:44;8.1;;;2.5;;
59653;SDS011;66556;52.008;5.432;2023-04-03T04:00:20;8.0;;;2.4;;
59653;SDS011;66556;52.008;5.432;2023-04-03T04:01:56;8.0;;;2.4;;
59653;SDS011;66556;52.008;5.432;2023-04-03T04:05:09;12.4;;;3.1;;
59653;SDS011;66556;52.008;5.432;2023-04-03T04:06:45;7.4;;;2.8;;
59653;SDS011;66556;52.008;5.432;2023-04-03T04:08:21;8.2;;;2.5;;
59653;SDS011;66556;52.008;5.432;2023-04-03T04:11:34;6.8;;;2.31;;
59653;SDS011;66556;52.008;5.432;2023-04-03T04:13:10;9.4;;;2.7;;
59653;SDS011;66556;52.008;5.432;2023-04-03T04:14:46;10.7;;;2.6;;
59653;SDS011;66556;52.008;5.432;2023-04-03T04:17:58;8.31;;;2.7;;
59653;SDS011;66556;52.008;5.432;2023-04-03T04:19:35;8.2;;;2.7;;
59653;SDS011;66556;52.008;5.432;2023-04-03T04:21:11;7.5;;;3.0;;
59653;SDS011;66556;52.008;5.432;2023-04-03T04:22:47;9.31;;;3.0;;
59653;SDS011;66556;52.008;5.432;2023-04-03T04:26:00;7.1;;;2.6;;
59653;SDS011;66556;52.008;5.432;2023-04-03T04:27:36;7.0;;;2.5;;
59653;SDS011;66556;52.008;5.432;2023-04-03T04:29:13;5.7;;;2.6;;
59653;SDS011;66556;52.008;5.432;2023-04-03T04:32:25;9.1;;;3.0;;
59653;SDS011;66556;52.008;5.432;2023-04-03T04:34:02;9.9;;;3.0;;
59653;SDS011;66556;52.008;5.432;2023-04-03T04:35:38;9.6;;;2.8;;
59653;SDS011;66556;52.008;5.432;2023-04-03T04:38:50;9.1;;;2.9;;
59653;SDS011;66556;52.008;5.432;2023-04-03T04:40:27;13.4;;;4.5;;
59653;SDS011;66556;52.008;5.432;2023-04-03T04:42:04;8.6;;;3.7;;
59653;SDS011;66556;52.008;5.432;2023-04-03T04:43:40;11.9;;;4.3;;
59653;SDS011;66556;52.008;5.432;2023-04-03T04:46:52;10.5;;;3.7;;
59653;SDS011;66556;52.008;5.432;2023-04-03T04:48:28;10.0;;;3.3;;
59653;SDS011;66556;52.008;5.432;2023-04-03T04:50:05;9.9;;;3.8;;
59653;SDS011;66556;52.008;5.432;2023-04-03T04:53:18;10.0;;;3.9;;
59653;SDS011;66556;52.008;5.432;2023-04-03T04:54:54;8.71;;;3.2;;
59653;SDS011;66556;52.008;5.432;2023-04-03T04:56:30;9.71;;;3.7;;
59653;SDS011;66556;52.008;5.432;2023-04-03T04:59:43;9.1;;;3.6;;
59653;SDS011;66556;52.008;5.432;2023-04-03T05:01:19;11.2;;;3.7;;
59653;SDS011;66556;52.008;5.432;2023-04-03T05:02:55;9.71;;;3.4;;
59653;SDS011;66556;52.008;5.432;2023-04-03T05:06:08;10.6;;;4.0;;
59653;SDS011;66556;52.008;5.432;2023-04-03T05:07:44;8.5;;;3.2;;
59653;SDS011;66556;52.008;5.432;2023-04-03T05:09:20;9.81;;;3.5;;
59653;SDS011;66556;52.008;5.432;2023-04-03T05:10:56;10.3;;;3.4;;
59653;SDS011;66556;52.008;5.432;2023-04-03T05:14:09;8.1;;;3.1;;
59653;SDS011;66556;52.008;5.432;2023-04-03T05:15:45;8.4;;;3.0;;
59653;SDS011;66556;52.008;5.432;2023-04-03T05:17:22;8.4;;;3.4;;
59653;SDS011;66556;52.008;5.432;2023-04-03T05:20:34;9.1;;;3.3;;
59653;SDS011;66556;52.008;5.432;2023-04-03T05:22:11;9.21;;;3.3;;
59653;SDS011;66556;52.008;5.432;2023-04-03T05:23:47;8.81;;;3.4;;
59653;SDS011;66556;52.008;5.432;2023-04-03T05:26:59;9.5;;;3.4;;
59653;SDS011;66556;52.008;5.432;2023-04-03T05:28:35;10.3;;;3.4;;
59653;SDS011;66556;52.008;5.432;2023-04-03T05:30:12;11.0;;;3.7;;
59653;SDS011;66556;52.008;5.432;2023-04-03T05:31:49;12.1;;;4.1;;
59653;SDS011;66556;52.008;5.432;2023-04-03T05:35:02;12.5;;;4.1;;
59653;SDS011;66556;52.008;5.432;2023-04-03T05:36:39;14.6;;;4.7;;
59653;SDS011;66556;52.008;5.432;2023-04-03T05:38:16;11.5;;;4.1;;
59653;SDS011;66556;52.008;5.432;2023-04-03T05:41:28;11.1;;;4.7;;
59653;SDS011;66556;52.008;5.432;2023-04-03T05:43:04;8.9;;;3.4;;
59653;SDS011;66556;52.008;5.432;2023-04-03T05:44:40;12.9;;;5.3;;
59653;SDS011;66556;52.008;5.432;2023-04-03T05:47:55;10.8;;;4.2;;
59653;SDS011;66556;52.008;5.432;2023-04-03T05:49:31;12.5;;;4.61;;
59653;SDS011;66556;52.008;5.432;2023-04-03T05:51:11;12.5;;;4.5;;
59653;SDS011;66556;52.008;5.432;2023-04-03T05:52:50;10.4;;;4.7;;
59653;SDS011;66556;52.008;5.432;2023-04-03T05:56:07;10.21;;;3.8;;
59653;SDS011;66556;52.008;5.432;2023-04-03T05:57:43;8.2;;;3.0;;
59653;SDS011;66556;52.008;5.432;2023-04-03T05:59:19;13.2;;;4.8;;
59653;SDS011;66556;52.008;5.432;2023-04-03T06:02:33;10.4;;;3.5;;
59653;SDS011;66556;52.008;5.432;2023-04-03T06:04:09;13.3;;;5.0;;
59653;SDS011;66556;52.008;5.432;2023-04-03T06:05:46;14.3;;;5.5;;
59653;SDS011;66556;52.008;5.432;2023-04-03T06:07:22;11.5;;;4.0;;
59653;SDS011;66556;52.008;5.432;2023-04-03T06:10:36;10.9;;;3.7;;
59653;SDS011;66556;52.008;5.432;2023-04-03T06:12:13;9.0;;;2.6;;
59653;SDS011;66556;52.008;5.432;2023-04-03T06:13:49;10.0;;;2.9;;
59653;SDS011;66556;52.008;5.432;2023-04-03T06:17:02;10.4;;;4.2;;
59653;SDS011;66556;52.008;5.432;2023-04-03T06:18:39;8.2;;;2.6;;
59653;SDS011;66556;52.008;5.432;2023-04-03T06:25:13;7.5;;;2.6;;
59653;SDS011;66556;52.008;5.432;2023-04-03T06:26:49;8.81;;;2.4;;
59653;SDS011;66556;52.008;5.432;2023-04-03T06:28:26;9.21;;;2.9;;
59653;SDS011;66556;52.008;5.432;2023-04-03T06:31:38;9.0;;;2.21;;
59653;SDS011;66556;52.008;5.432;2023-04-03T06:33:14;7.6;;;2.4;;
59653;SDS011;66556;52.008;5.432;2023-04-03T06:34:50;9.71;;;2.31;;
59653;SDS011;66556;52.008;5.432;2023-04-03T06:38:02;6.1;;;2.4;;
59653;SDS011;66556;52.008;5.432;2023-04-03T06:39:38;6.8;;;2.31;;
59653;SDS011;66556;52.008;5.432;2023-04-03T06:41:14;7.1;;;2.4;;
59653;SDS011;66556;52.008;5.432;2023-04-03T06:44:28;8.2;;;2.31;;
59653;SDS011;66556;52.008;5.432;2023-04-03T06:46:04;6.4;;;2.21;;
59653;SDS011;66556;52.008;5.432;2023-04-03T06:47:40;8.9;;;2.21;;
59653;SDS011;66556;52.008;5.432;2023-04-03T06:49:16;8.71;;;2.0;;
59653;SDS011;66556;52.008;5.432;2023-04-03T06:52:29;5.7;;;2.1;;
59653;SDS011;66556;52.008;5.432;2023-04-03T06:54:05;10.4;;;2.31;;
59653;SDS011;66556;52.008;5.432;2023-04-03T06:55:42;10.21;;;2.4;;
59653;SDS011;66556;52.008;5.432;2023-04-03T06:58:54;5.4;;;2.0;;
59653;SDS011;66556;52.008;5.432;2023-04-03T07:00:31;7.4;;;2.31;;
59653;SDS011;66556;52.008;5.432;2023-04-03T07:02:08;6.8;;;2.0;;
59653;SDS011;66556;52.008;5.432;2023-04-03T07:05:24;8.31;;;2.21;;
59653;SDS011;66556;52.008;5.432;2023-04-03T07:07:01;5.8;;;1.9;;
59653;SDS011;66556;52.008;5.432;2023-04-03T07:08:37;9.4;;;2.21;;
59653;SDS011;66556;52.008;5.432;2023-04-03T07:10:14;7.0;;;2.21;;
59653;SDS011;66556;52.008;5.432;2023-04-03T07:13:27;5.8;;;2.1;;
59653;SDS011;66556;52.008;5.432;2023-04-03T07:15:03;7.3;;;2.1;;
59653;SDS011;66556;52.008;5.432;2023-04-03T07:16:40;7.5;;;2.1;;
59653;SDS011;66556;52.008;5.432;2023-04-03T07:19:53;5.5;;;1.9;;
59653;SDS011;66556;52.008;5.432;2023-04-03T07:21:29;7.7;;;2.7;;
59653;SDS011;66556;52.008;5.432;2023-04-03T07:23:05;8.5;;;2.21;;
59653;SDS011;66556;52.008;5.432;2023-04-03T07:26:18;6.8;;;2.1;;
59653;SDS011;66556;52.008;5.432;2023-04-03T07:27:54;6.6;;;2.0;;
59653;SDS011;66556;52.008;5.432;2023-04-03T07:29:31;6.6;;;2.1;;
59653;SDS011;66556;52.008;5.432;2023-04-03T07:31:08;7.2;;;2.21;;
59653;SDS011;66556;52.008;5.432;2023-04-03T07:34:23;7.5;;;1.9;;
59653;SDS011;66556;52.008;5.432;2023-04-03T07:35:59;6.3;;;1.9;;
59653;SDS011;66556;52.008;5.432;2023-04-03T07:37:36;5.6;;;1.9;;
59653;SDS011;66556;52.008;5.432;2023-04-03T07:40:49;6.3;;;1.8;;
59653;SDS011;66556;52.008;5.432;2023-04-03T07:42:26;4.7;;;2.1;;
59653;SDS011;66556;52.008;5.432;2023-04-03T07:44:02;6.8;;;2.0;;
59653;SDS011;66556;52.008;5.432;2023-04-03T07:45:40;5.9;;;2.31;;
59653;SDS011;66556;52.008;5.432;2023-04-03T07:48:54;5.4;;;2.1;;
59653;SDS011;66556;52.008;5.432;2023-04-03T07:50:30;6.3;;;1.9;;
59653;SDS011;66556;52.008;5.432;2023-04-03T07:52:07;4.41;;;1.4;;
59653;SDS011;66556;52.008;5.432;2023-04-03T07:55:19;6.1;;;1.9;;
59653;SDS011;66556;52.008;5.432;2023-04-03T07:56:55;6.3;;;1.9;;
59653;SDS011;66556;52.008;5.432;2023-04-03T07:58:31;6.8;;;2.4;;
59653;SDS011;66556;52.008;5.432;2023-04-03T08:01:44;5.8;;;2.31;;
59653;SDS011;66556;52.008;5.432;2023-04-03T08:03:20;8.4;;;2.1;;
59653;SDS011;66556;52.008;5.432;2023-04-03T08:04:56;4.91;;;1.7;;
59653;SDS011;66556;52.008;5.432;2023-04-03T08:08:09;5.8;;;2.0;;
59653;SDS011;66556;52.008;5.432;2023-04-03T08:09:47;6.8;;;2.4;;
59653;SDS011;66556;52.008;5.432;2023-04-03T08:11:23;10.4;;;2.0;;
59653;SDS011;66556;52.008;5.432;2023-04-03T08:12:59;4.2;;;1.5;;
59653;SDS011;66556;52.008;5.432;2023-04-03T08:16:15;5.2;;;1.5;;
59653;SDS011;66556;52.008;5.432;2023-04-03T08:17:54;5.7;;;1.8;;
59653;SDS011;66556;52.008;5.432;2023-04-03T08:19:30;4.61;;;1.3;;
59653;SDS011;66556;52.008;5.432;2023-04-03T08:22:44;4.8;;;1.8;;
59653;SDS011;66556;52.008;5.432;2023-04-03T08:24:20;4.3;;;1.5;;
59653;SDS011;66556;52.008;5.432;2023-04-03T08:25:56;5.11;;;1.6;;
59653;SDS011;66556;52.008;5.432;2023-04-03T08:27:32;4.3;;;1.2;;
59653;SDS011;66556;52.008;5.432;2023-04-03T08:30:46;4.61;;;1.7;;
59653;SDS011;66556;52.008;5.432;2023-04-03T08:32:22;4.2;;;1.7;;
59653;SDS011;66556;52.008;5.432;2023-04-03T08:33:58;6.3;;;1.6;;
59653;SDS011;66556;52.008;5.432;2023-04-03T08:37:14;4.3;;;1.3;;
59653;SDS011;66556;52.008;5.432;2023-04-03T08:38:50;3.8;;;1.5;;
59653;SDS011;66556;52.008;5.432;2023-04-03T08:40:28;4.2;;;1.4;;
59653;SDS011;66556;52.008;5.432;2023-04-03T08:43:56;4.61;;;1.3;;
59653;SDS011;66556;52.008;5.432;2023-04-03T08:45:42;5.11;;;1.2;;
59653;SDS011;66556;52.008;5.432;2023-04-03T08:47:23;4.2;;;1.3;;
59653;SDS011;66556;52.008;5.432;2023-04-03T08:49:04;4.3;;;1.3;;
59653;SDS011;66556;52.008;5.432;2023-04-03T08:50:50;4.61;;;1.11;;
59653;SDS011;66556;52.008;5.432;2023-04-03T08:54:14;3.1;;;1.0;;
59653;SDS011;66556;52.008;5.432;2023-04-03T08:56:02;13.4;;;1.6;;
59653;SDS011;66556;52.008;5.432;2023-04-03T08:57:44;4.5;;;0.8;;
59653;SDS011;66556;52.008;5.432;2023-04-03T08:59:24;3.0;;;0.9;;
59653;SDS011;66556;52.008;5.432;2023-04-03T09:02:53;1.8;;;0.8;;
59653;SDS011;66556;52.008;5.432;2023-04-03T09:04:31;2.7;;;1.11;;
59653;SDS011;66556;52.008;5.432;2023-04-03T09:06:10;2.0;;;0.9;;
59653;SDS011;66556;52.008;5.432;2023-04-03T09:07:53;2.9;;;1.0;;
59653;SDS011;66556;52.008;5.432;2023-04-03T09:11:19;1.9;;;0.8;;
59653;SDS011;66556;52.008;5.432;2023-04-03T09:13:01;2.31;;;0.6;;
59653;SDS011;66556;52.008;5.432;2023-04-03T09:14:46;1.9;;;0.8;;
59653;SDS011;66556;52.008;5.432;2023-04-03T09:16:36;3.1;;;0.8;;
59653;SDS011;66556;52.008;5.432;2023-04-03T09:18:24;2.6;;;0.8;;
59653;SDS011;66556;52.008;5.432;2023-04-03T09:21:56;3.0;;;0.8;;
59653;SDS011;66556;52.008;5.432;2023-04-03T09:23:33;2.21;;;0.9;;
59653;SDS011;66556;52.008;5.432;2023-04-03T09:25:18;2.8;;;0.7;;
59653;SDS011;66556;52.008;5.432;2023-04-03T09:26:58;1.8;;;0.8;;
59653;SDS011;66556;52.008;5.432;2023-04-03T09:28:41;1.9;;;0.8;;
59653;SDS011;66556;52.008;5.432;2023-04-03T09:31:58;1.5;;;0.7;;
59653;SDS011;66556;52.008;5.432;2023-04-03T09:33:36;2.9;;;0.7;;
59653;SDS011;66556;52.008;5.432;2023-04-03T09:35:17;2.9;;;0.7;;
59653;SDS011;66556;52.008;5.432;2023-04-03T09:36:57;1.7;;;0.6;;
59653;SDS011;66556;52.008;5.432;2023-04-03T09:40:27;4.1;;;0.9;;
59653;SDS011;66556;52.008;5.432;2023-04-03T09:42:21;1.9;;;0.6;;
59653;SDS011;66556;52.008;5.432;2023-04-03T09:43:59;3.6;;;0.7;;
59653;SDS011;66556;52.008;5.432;2023-04-03T09:45:35;1.4;;;0.6;;
59653;SDS011;66556;52.008;5.432;2023-04-03T09:49:02;1.4;;;0.5;;
59653;SDS011;66556;52.008;5.432;2023-04-03T09:50:52;2.1;;;0.6;;
59653;SDS011;66556;52.008;5.432;2023-04-03T09:52:33;2.31;;;0.6;;
59653;SDS011;66556;52.008;5.432;2023-04-03T09:54:26;1.2;;;0.4;;
59653;SDS011;66556;52.008;5.432;2023-04-03T09:56:18;0.9;;;0.5;;
59653;SDS011;66556;52.008;5.432;2023-04-03T09:57:59;3.5;;;0.6;;
59653;SDS011;66556;52.008;5.432;2023-04-03T10:01:21;1.11;;;0.4;;
59653;SDS011;66556;52.008;5.432;2023-04-03T10:03:03;0.9;;;0.6;;
59653;SDS011;66556;52.008;5.432;2023-04-03T10:04:41;0.9;;;0.3;;
59653;SDS011;66556;52.008;5.432;2023-04-03T10:06:21;1.6;;;0.4;;
59653;SDS011;66556;52.008;5.432;2023-04-03T10:09:59;1.0;;;0.3;;
59653;SDS011;66556;52.008;5.432;2023-04-03T10:11:38;0.8;;;0.3;;
59653;SDS011;66556;52.008;5.432;2023-04-03T10:13:34;1.0;;;0.4;;
59653;SDS011;66556;52.008;5.432;2023-04-03T10:15:11;1.8;;;0.6;;
59653;SDS011;66556;52.008;5.432;2023-04-03T10:16:51;0.7;;;0.4;;
59653;SDS011;66556;52.008;5.432;2023-04-03T10:20:26;1.3;;;0.3;;
59653;SDS011;66556;52.008;5.432;2023-04-03T10:22:13;1.11;;;0.3;;
59653;SDS011;66556;52.008;5.432;2023-04-03T10:23:57;1.5;;;0.4;;
59653;SDS011;66556;52.008;5.432;2023-04-03T10:25:46;2.6;;;0.6;;
59653;SDS011;66556;52.008;5.432;2023-04-03T10:27:33;0.9;;;0.4;;
59653;SDS011;66556;52.008;5.432;2023-04-03T10:29:21;1.9;;;0.7;;
59653;SDS011;66556;52.008;5.432;2023-04-03T10:33:01;1.0;;;0.4;;
59653;SDS011;66556;52.008;5.432;2023-04-03T10:34:53;1.5;;;0.3;;
59653;SDS011;66556;52.008;5.432;2023-04-03T10:36:38;1.3;;;0.4;;
59653;SDS011;66556;52.008;5.432;2023-04-03T10:38:23;1.5;;;0.4;;
59653;SDS011;66556;52.008;5.432;2023-04-03T10:40:15;0.7;;;0.4;;
59653;SDS011;66556;52.008;5.432;2023-04-03T10:42:05;1.0;;;0.4;;
59653;SDS011;66556;52.008;5.432;2023-04-03T10:45:51;0.8;;;0.3;;
59653;SDS011;66556;52.008;5.432;2023-04-03T10:47:34;2.9;;;0.5;;
59653;SDS011;66556;52.008;5.432;2023-04-03T10:49:23;1.11;;;0.5;;
59653;SDS011;66556;52.008;5.432;2023-04-03T10:51:13;1.11;;;0.4;;
59653;SDS011;66556;52.008;5.432;2023-04-03T10:53:01;1.11;;;0.5;;
59653;SDS011;66556;52.008;5.432;2023-04-03T10:54:45;1.11;;;0.5;;
59653;SDS011;66556;52.008;5.432;2023-04-03T10:56:31;1.2;;;0.5;;
59653;SDS011;66556;52.008;5.432;2023-04-03T11:00:01;1.5;;;0.4;;
59653;SDS011;66556;52.008;5.432;2023-04-03T11:01:41;2.7;;;0.5;;
59653;SDS011;66556;52.008;5.432;2023-04-03T11:03:24;2.4;;;0.6;;
59653;SDS011;66556;52.008;5.432;2023-04-03T11:05:07;2.4;;;0.5;;
59653;SDS011;66556;52.008;5.432;2023-04-03T11:06:56;2.6;;;0.6;;
59653;SDS011;66556;52.008;5.432;2023-04-03T11:10:21;1.6;;;0.7;;
59653;SDS011;66556;52.008;5.432;2023-04-03T11:12:02;2.31;;;0.7;;
59653;SDS011;66556;52.008;5.432;2023-04-03T11:13:48;1.11;;;0.6;;
59653;SDS011;66556;52.008;5.432;2023-04-03T11:15:30;1.9;;;0.6;;
59653;SDS011;66556;52.008;5.432;2023-04-03T11:19:01;1.8;;;0.6;;
59653;SDS011;66556;52.008;5.432;2023-04-03T11:20:53;2.1;;;0.6;;
59653;SDS011;66556;52.008;5.432;2023-04-03T11:22:37;2.9;;;1.0;;
59653;SDS011;66556;52.008;5.432;2023-04-03T11:24:20;2.31;;;0.8;;
59653;SDS011;66556;52.008;5.432;2023-04-03T11:26:07;2.6;;;0.9;;
59653;SDS011;66556;52.008;5.432;2023-04-03T11:27:48;2.5;;;1.2;;
59653;SDS011;66556;52.008;5.432;2023-04-03T11:31:22;2.8;;;0.9;;
59653;SDS011;66556;52.008;5.432;2023-04-03T11:33:14;1.6;;;0.7;;
59653;SDS011;66556;52.008;5.432;2023-04-03T11:35:12;3.1;;;1.0;;
59653;SDS011;66556;52.008;5.432;2023-04-03T11:36:51;2.9;;;0.9;;
59653;SDS011;66556;52.008;5.432;2023-04-03T11:38:31;3.2;;;0.9;;
59653;SDS011;66556;52.008;5.432;2023-04-03T11:42:16;3.2;;;0.9;;
59653;SDS011;66556;52.008;5.432;2023-04-03T11:44:05;3.0;;;1.0;;
59653;SDS011;66556;52.008;5.432;2023-04-03T11:46:09;1.8;;;0.8;;
59653;SDS011;66556;52.008;5.432;2023-04-03T11:49:59;2.7;;;0.8;;
59653;SDS011;66556;52.008;5.432;2023-04-03T11:51:38;2.1;;;1.11;;
59653;SDS011;66556;52.008;5.432;2023-04-03T11:53:29;2.8;;;0.9;;
59653;SDS011;66556;52.008;5.432;2023-04-03T11:56:26;2.21;;;0.9;;
59653;SDS011;66556;52.008;5.432;2023-04-03T11:58:13;8.4;;;1.0;;
59653;SDS011;66556;52.008;5.432;2023-04-03T11:59:51;3.0;;;1.0;;
59653;SDS011;66556;52.008;5.432;2023-04-03T12:01:43;1.4;;;0.8;;
59653;SDS011;66556;52.008;5.432;2023-04-03T12:04:09;2.4;;;1.0;;
59653;SDS011;66556;52.008;5.432;2023-04-03T12:06:42;2.7;;;0.9;;
59653;SDS011;66556;52.008;5.432;2023-04-03T12:08:46;1.9;;;0.9;;
59653;SDS011;66556;52.008;5.432;2023-04-03T12:10:26;3.2;;;0.9;;
59653;SDS011;66556;52.008;5.432;2023-04-03T12:12:21;4.8;;;0.9;;
59653;SDS011;66556;52.008;5.432;2023-04-03T12:14:04;2.1;;;0.9;;
59653;SDS011;66556;52.008;5.432;2023-04-03T12:17:29;3.1;;;0.9;;
59653;SDS011;66556;52.008;5.432;2023-04-03T12:19:24;2.9;;;0.9;;
59653;SDS011;66556;52.008;5.432;2023-04-03T12:21:10;2.1;;;0.8;;
59653;SDS011;66556;52.008;5.432;2023-04-03T12:23:06;2.4;;;0.8;;
59653;SDS011;66556;52.008;5.432;2023-04-03T12:24:43;5.5;;;0.9;;
59653;SDS011;66556;52.008;5.432;2023-04-03T12:26:24;1.9;;;0.8;;
59653;SDS011;66556;52.008;5.432;2023-04-03T12:29:43;2.21;;;0.9;;
59653;SDS011;66556;52.008;5.432;2023-04-03T12:31:31;3.2;;;1.0;;
59653;SDS011;66556;52.008;5.432;2023-04-03T12:33:23;2.5;;;0.9;;
59653;SDS011;66556;52.008;5.432;2023-04-03T12:35:19;3.1;;;0.9;;
59653;SDS011;66556;52.008;5.432;2023-04-03T12:37:01;3.3;;;0.9;;
59653;SDS011;66556;52.008;5.432;2023-04-03T12:40:43;3.0;;;0.9;;
59653;SDS011;66556;52.008;5.432;2023-04-03T12:42:32;2.21;;;0.8;;
59653;SDS011;66556;52.008;5.432;2023-04-03T12:44:24;2.9;;;0.7;;
59653;SDS011;66556;52.008;5.432;2023-04-03T12:46:17;2.8;;;0.9;;
59653;SDS011;66556;52.008;5.432;2023-04-03T12:47:55;4.2;;;0.9;;
59653;SDS011;66556;52.008;5.432;2023-04-03T12:49:35;2.7;;;0.8;;
59653;SDS011;66556;52.008;5.432;2023-04-03T12:52:56;2.6;;;0.9;;
59653;SDS011;66556;52.008;5.432;2023-04-03T12:54:36;3.3;;;0.8;;
59653;SDS011;66556;52.008;5.432;2023-04-03T12:56:19;2.21;;;0.8;;
59653;SDS011;66556;52.008;5.432;2023-04-03T12:57:57;3.0;;;0.8;;
59653;SDS011;66556;52.008;5.432;2023-04-03T12:59:49;2.8;;;1.11;;
59653;SDS011;66556;52.008;5.432;2023-04-03T13:03:03;4.41;;;1.0;;
59653;SDS011;66556;52.008;5.432;2023-04-03T13:04:40;2.9;;;0.9;;